LPE2023 SPJC-SPTU
Flight info
| Callsign | LPE2023 |
|---|---|
| Flight time | 1h 17m |
| Altitude | 37000 |
| Route | ILPIP UT218 ANBON DCT ISUMO |
| Aircraft | A319/M-SDE3FGHIRWY/LB1 |
Departure
| Time | 2026-04-27 21:33 |
|---|---|
| Airport | Jorge Chávez International Airport (SPJC) |
Arrival
| Time | 2026-04-27 22:50 |
|---|---|
| Airport | Padre Aldamiz International Airport (SPTU) |
| Time | Latitude | Longitude | Altitude | Speed | Heading |
|---|---|---|---|---|---|
| 2026-04-27 21:11 | -12.02682 | -77.11689 | 127 ft | 0 kts | 243° |
| 2026-04-27 21:14 | -12.02682 | -77.11688 | 127 ft | 0 kts | 243° |
| 2026-04-27 21:15 | -12.02676 | -77.11677 | 127 ft | 2 kts | 244° |
| 2026-04-27 21:15 | -12.02670 | -77.11663 | 127 ft | 2 kts | 243° |
| 2026-04-27 21:15 | -12.02663 | -77.11649 | 127 ft | 2 kts | 243° |
| 2026-04-27 21:15 | -12.02659 | -77.11639 | 127 ft | 1 kts | 286° |
| 2026-04-27 21:16 | -12.02665 | -77.11629 | 127 ft | 1 kts | 336° |
| 2026-04-27 21:16 | -12.02675 | -77.11626 | 127 ft | 1 kts | 334° |
| 2026-04-27 21:16 | -12.02681 | -77.11623 | 127 ft | 1 kts | 328° |
| 2026-04-27 21:16 | -12.02684 | -77.11621 | 127 ft | 0 kts | 333° |
| 2026-04-27 21:19 | -12.02679 | -77.11623 | 127 ft | 3 kts | 334° |
| 2026-04-27 21:19 | -12.02636 | -77.11643 | 127 ft | 9 kts | 336° |
| 2026-04-27 21:20 | -12.02486 | -77.11719 | 127 ft | 12 kts | 334° |
| 2026-04-27 21:20 | -12.02417 | -77.11747 | 127 ft | 9 kts | 7° |
| 2026-04-27 21:20 | -12.02377 | -77.11698 | 127 ft | 9 kts | 64° |
| 2026-04-27 21:20 | -12.02349 | -77.11639 | 127 ft | 9 kts | 61° |
| 2026-04-27 21:21 | -12.02295 | -77.11633 | 127 ft | 8 kts | 333° |
| 2026-04-27 21:21 | -12.02240 | -77.11662 | 127 ft | 8 kts | 332° |
| 2026-04-27 21:21 | -12.02184 | -77.11691 | 127 ft | 9 kts | 334° |
| 2026-04-27 21:21 | -12.02126 | -77.11718 | 127 ft | 9 kts | 335° |
| 2026-04-27 21:22 | -12.02068 | -77.11745 | 127 ft | 9 kts | 336° |
| 2026-04-27 21:22 | -12.02010 | -77.11773 | 128 ft | 9 kts | 333° |
| 2026-04-27 21:22 | -12.01951 | -77.11803 | 128 ft | 9 kts | 334° |
| 2026-04-27 21:22 | -12.01896 | -77.11837 | 128 ft | 9 kts | 330° |
| 2026-04-27 21:23 | -12.01840 | -77.11833 | 128 ft | 9 kts | 46° |
| 2026-04-27 21:23 | -12.01789 | -77.11807 | 128 ft | 8 kts | 358° |
| 2026-04-27 21:23 | -12.01736 | -77.11828 | 128 ft | 8 kts | 331° |
| 2026-04-27 21:23 | -12.01685 | -77.11855 | 128 ft | 8 kts | 334° |
| 2026-04-27 21:24 | -12.01633 | -77.11880 | 128 ft | 8 kts | 334° |
| 2026-04-27 21:24 | -12.01581 | -77.11906 | 128 ft | 8 kts | 333° |
| 2026-04-27 21:24 | -12.01528 | -77.11932 | 128 ft | 8 kts | 334° |
| 2026-04-27 21:24 | -12.01473 | -77.11958 | 128 ft | 8 kts | 334° |
| 2026-04-27 21:25 | -12.01419 | -77.11985 | 128 ft | 8 kts | 333° |
| 2026-04-27 21:25 | -12.01364 | -77.12013 | 128 ft | 8 kts | 334° |
| 2026-04-27 21:25 | -12.01341 | -77.12025 | 128 ft | 0 kts | 333° |
| 2026-04-27 21:25 | -12.01323 | -77.12033 | 128 ft | 5 kts | 333° |
| 2026-04-27 21:26 | -12.01297 | -77.12056 | 128 ft | 2 kts | 311° |
| 2026-04-27 21:26 | -12.01272 | -77.12086 | 128 ft | 8 kts | 309° |
| 2026-04-27 21:26 | -12.01224 | -77.12144 | 128 ft | 11 kts | 309° |
| 2026-04-27 21:26 | -12.01175 | -77.12180 | 128 ft | 8 kts | 336° |
| 2026-04-27 21:27 | -12.01116 | -77.12208 | 128 ft | 7 kts | 334° |
| 2026-04-27 21:27 | -12.01109 | -77.12212 | 128 ft | 1 kts | 334° |
| 2026-04-27 21:27 | -12.01094 | -77.12219 | 128 ft | 3 kts | 332° |
| 2026-04-27 21:27 | -12.01068 | -77.12233 | 128 ft | 4 kts | 333° |
| 2026-04-27 21:28 | -12.01032 | -77.12251 | 128 ft | 6 kts | 333° |
| 2026-04-27 21:28 | -12.00987 | -77.12274 | 128 ft | 8 kts | 334° |
| 2026-04-27 21:28 | -12.00949 | -77.12292 | 128 ft | 0 kts | 336° |
| 2026-04-27 21:30 | -12.00940 | -77.12296 | 127 ft | 5 kts | 336° |
| 2026-04-27 21:30 | -12.00885 | -77.12318 | 127 ft | 9 kts | 350° |
| 2026-04-27 21:30 | -12.00842 | -77.12269 | 127 ft | 10 kts | 65° |
| 2026-04-27 21:30 | -12.00809 | -77.12195 | 128 ft | 11 kts | 66° |
| 2026-04-27 21:31 | -12.00785 | -77.12127 | 128 ft | 5 kts | 101° |
| 2026-04-27 21:31 | -12.00793 | -77.12120 | 128 ft | 0 kts | 167° |
| 2026-04-27 21:31 | -12.00798 | -77.12118 | 128 ft | 0 kts | 158° |
| 2026-04-27 21:32 | -12.00805 | -77.12115 | 128 ft | 9 kts | 157° |
| 2026-04-27 21:32 | -12.01099 | -77.11970 | 128 ft | 81 kts | 154° |
| 2026-04-27 21:32 | -12.01803 | -77.11622 | 128 ft | 140 kts | 153° |
| 2026-04-27 21:32 | -12.02769 | -77.11150 | 400 ft | 160 kts | 159° |
| 2026-04-27 21:33 | -12.03778 | -77.10696 | 984 ft | 162 kts | 157° |
| 2026-04-27 21:33 | -12.04847 | -77.10223 | 1483 ft | 172 kts | 158° |
| 2026-04-27 21:33 | -12.05978 | -77.09745 | 2028 ft | 181 kts | 158° |
| 2026-04-27 21:33 | -12.07145 | -77.09180 | 2519 ft | 194 kts | 151° |
| 2026-04-27 21:34 | -12.08393 | -77.08492 | 2967 ft | 211 kts | 150° |
| 2026-04-27 21:34 | -12.09772 | -77.07749 | 3355 ft | 234 kts | 151° |
| 2026-04-27 21:34 | -12.11276 | -77.06969 | 3847 ft | 254 kts | 152° |
| 2026-04-27 21:34 | -12.12921 | -77.06139 | 4416 ft | 270 kts | 153° |
| 2026-04-27 21:35 | -12.14640 | -77.05285 | 5184 ft | 278 kts | 153° |
| 2026-04-27 21:35 | -12.16375 | -77.04385 | 5974 ft | 283 kts | 146° |
| 2026-04-27 21:35 | -12.17709 | -77.02927 | 6671 ft | 286 kts | 113° |
| 2026-04-27 21:35 | -12.18071 | -77.01002 | 7630 ft | 277 kts | 83° |
| 2026-04-27 21:36 | -12.17546 | -76.99174 | 8541 ft | 269 kts | 58° |
| 2026-04-27 21:36 | -12.16386 | -76.97695 | 9236 ft | 271 kts | 47° |
| 2026-04-27 21:36 | -12.15078 | -76.96249 | 9674 ft | 284 kts | 47° |
| 2026-04-27 21:36 | -12.13721 | -76.94730 | 10127 ft | 294 kts | 48° |
| 2026-04-27 21:37 | -12.12344 | -76.93160 | 10559 ft | 305 kts | 48° |
| 2026-04-27 21:37 | -12.10891 | -76.91486 | 10987 ft | 317 kts | 49° |
| 2026-04-27 21:37 | -12.09414 | -76.89777 | 11593 ft | 321 kts | 49° |
| 2026-04-27 21:37 | -12.07934 | -76.88061 | 12184 ft | 324 kts | 49° |
| 2026-04-27 21:38 | -12.06475 | -76.86314 | 12679 ft | 326 kts | 55° |
| 2026-04-27 21:38 | -12.05542 | -76.84245 | 13319 ft | 321 kts | 77° |
| 2026-04-27 21:38 | -12.05398 | -76.82034 | 14275 ft | 309 kts | 94° |
| 2026-04-27 21:38 | -12.05566 | -76.79888 | 15002 ft | 306 kts | 95° |
| 2026-04-27 21:39 | -12.05754 | -76.77691 | 15195 ft | 320 kts | 95° |
| 2026-04-27 21:39 | -12.05944 | -76.75388 | 15406 ft | 333 kts | 94° |
| 2026-04-27 21:39 | -12.06134 | -76.73001 | 15854 ft | 339 kts | 94° |
| 2026-04-27 21:39 | -12.06322 | -76.70583 | 16348 ft | 341 kts | 94° |
| 2026-04-27 21:40 | -12.06504 | -76.68181 | 16873 ft | 342 kts | 94° |
| 2026-04-27 21:40 | -12.06688 | -76.65749 | 17411 ft | 344 kts | 94° |
| 2026-04-27 21:40 | -12.06871 | -76.63298 | 17967 ft | 347 kts | 94° |
| 2026-04-27 21:40 | -12.07052 | -76.60864 | 18479 ft | 349 kts | 94° |
| 2026-04-27 21:41 | -12.07236 | -76.58385 | 18951 ft | 352 kts | 94° |
| 2026-04-27 21:41 | -12.07422 | -76.55886 | 19450 ft | 355 kts | 94° |
| 2026-04-27 21:41 | -12.07610 | -76.53351 | 19940 ft | 357 kts | 94° |
| 2026-04-27 21:41 | -12.07797 | -76.50825 | 20394 ft | 360 kts | 94° |
| 2026-04-27 21:42 | -12.07986 | -76.48278 | 20855 ft | 362 kts | 94° |
| 2026-04-27 21:42 | -12.08175 | -76.45716 | 21294 ft | 365 kts | 94° |
| 2026-04-27 21:42 | -12.08367 | -76.43121 | 21722 ft | 367 kts | 94° |
| 2026-04-27 21:42 | -12.08560 | -76.40498 | 22150 ft | 370 kts | 94° |
| 2026-04-27 21:43 | -12.08752 | -76.37871 | 22564 ft | 373 kts | 94° |
| 2026-04-27 21:43 | -12.08947 | -76.35220 | 22976 ft | 375 kts | 94° |
| 2026-04-27 21:43 | -12.09141 | -76.32574 | 23395 ft | 378 kts | 93° |
| 2026-04-27 21:43 | -12.09340 | -76.29871 | 23815 ft | 380 kts | 93° |
| 2026-04-27 21:44 | -12.09537 | -76.27183 | 24230 ft | 383 kts | 93° |
| 2026-04-27 21:44 | -12.09735 | -76.24458 | 24634 ft | 386 kts | 94° |
| 2026-04-27 21:44 | -12.09935 | -76.21724 | 25031 ft | 389 kts | 94° |
| 2026-04-27 21:44 | -12.10136 | -76.18977 | 25435 ft | 392 kts | 94° |
| 2026-04-27 21:45 | -12.10340 | -76.16176 | 25839 ft | 394 kts | 94° |
| 2026-04-27 21:45 | -12.10613 | -76.12460 | 26356 ft | 398 kts | 94° |
| 2026-04-27 21:45 | -12.10750 | -76.10571 | 26613 ft | 400 kts | 94° |
| 2026-04-27 21:45 | -12.10956 | -76.07739 | 26994 ft | 403 kts | 94° |
| 2026-04-27 21:46 | -12.11164 | -76.04875 | 27372 ft | 405 kts | 94° |
| 2026-04-27 21:46 | -12.11372 | -76.02014 | 27730 ft | 408 kts | 93° |
| 2026-04-27 21:46 | -12.11558 | -75.99112 | 28091 ft | 411 kts | 92° |
| 2026-04-27 21:46 | -12.11733 | -75.96187 | 28442 ft | 414 kts | 92° |
| 2026-04-27 21:47 | -12.11907 | -75.93245 | 28794 ft | 417 kts | 92° |
| 2026-04-27 21:47 | -12.12083 | -75.90300 | 29142 ft | 419 kts | 92° |
| 2026-04-27 21:47 | -12.12262 | -75.87316 | 29498 ft | 421 kts | 92° |
| 2026-04-27 21:47 | -12.12442 | -75.84341 | 29858 ft | 423 kts | 93° |
| 2026-04-27 21:48 | -12.12622 | -75.81348 | 30271 ft | 423 kts | 92° |
| 2026-04-27 21:48 | -12.12803 | -75.78374 | 31015 ft | 414 kts | 92° |
| 2026-04-27 21:48 | -12.12981 | -75.75448 | 31620 ft | 409 kts | 92° |
| 2026-04-27 21:48 | -12.13154 | -75.72566 | 31974 ft | 410 kts | 92° |
| 2026-04-27 21:49 | -12.13327 | -75.69665 | 32114 ft | 416 kts | 92° |
| 2026-04-27 21:49 | -12.13505 | -75.66683 | 32247 ft | 422 kts | 92° |
| 2026-04-27 21:49 | -12.13683 | -75.63672 | 32375 ft | 428 kts | 92° |
| 2026-04-27 21:49 | -12.13864 | -75.60623 | 32510 ft | 434 kts | 92° |
| 2026-04-27 21:50 | -12.14047 | -75.57535 | 32717 ft | 438 kts | 92° |
| 2026-04-27 21:50 | -12.14230 | -75.54456 | 33098 ft | 438 kts | 92° |
| 2026-04-27 21:50 | -12.14416 | -75.51327 | 33561 ft | 436 kts | 92° |
| 2026-04-27 21:50 | -12.14600 | -75.48244 | 34009 ft | 435 kts | 92° |
| 2026-04-27 21:51 | -12.14782 | -75.45187 | 34431 ft | 433 kts | 92° |
| 2026-04-27 21:51 | -12.14961 | -75.42144 | 34815 ft | 433 kts | 92° |
| 2026-04-27 21:51 | -12.15143 | -75.39053 | 35215 ft | 431 kts | 92° |
| 2026-04-27 21:51 | -12.15322 | -75.36023 | 35584 ft | 430 kts | 92° |
| 2026-04-27 21:52 | -12.15501 | -75.32975 | 35918 ft | 430 kts | 92° |
| 2026-04-27 21:52 | -12.15678 | -75.29938 | 36216 ft | 430 kts | 92° |
| 2026-04-27 21:52 | -12.15857 | -75.26893 | 36447 ft | 431 kts | 92° |
| 2026-04-27 21:52 | -12.16034 | -75.23834 | 36658 ft | 432 kts | 92° |
| 2026-04-27 21:53 | -12.16211 | -75.20787 | 36878 ft | 433 kts | 92° |
| 2026-04-27 21:53 | -12.16390 | -75.17716 | 37087 ft | 434 kts | 92° |
| 2026-04-27 21:53 | -12.16570 | -75.14625 | 37289 ft | 435 kts | 92° |
| 2026-04-27 21:53 | -12.16748 | -75.11547 | 37473 ft | 436 kts | 92° |
| 2026-04-27 21:54 | -12.16927 | -75.08473 | 37663 ft | 437 kts | 92° |
| 2026-04-27 21:54 | -12.17107 | -75.05366 | 37837 ft | 438 kts | 91° |
| 2026-04-27 21:54 | -12.17466 | -74.99129 | 37889 ft | 440 kts | 92° |
| 2026-04-27 21:55 | -12.17822 | -74.92912 | 37875 ft | 441 kts | 92° |
| 2026-04-27 21:55 | -12.18178 | -74.86668 | 37854 ft | 441 kts | 92° |
| 2026-04-27 21:56 | -12.18712 | -74.77298 | 37770 ft | 441 kts | 91° |
| 2026-04-27 21:57 | -12.19068 | -74.71031 | 37700 ft | 441 kts | 91° |
| 2026-04-27 21:57 | -12.19418 | -74.64809 | 37705 ft | 441 kts | 91° |
| 2026-04-27 21:58 | -12.19768 | -74.58570 | 37728 ft | 442 kts | 91° |
| 2026-04-27 21:58 | -12.20118 | -74.52297 | 37699 ft | 442 kts | 91° |
| 2026-04-27 21:59 | -12.20465 | -74.46054 | 37705 ft | 442 kts | 91° |
| 2026-04-27 21:59 | -12.20812 | -74.39782 | 37624 ft | 442 kts | 91° |
| 2026-04-27 22:00 | -12.21159 | -74.33534 | 37504 ft | 442 kts | 91° |
| 2026-04-27 22:00 | -12.21504 | -74.27270 | 37361 ft | 443 kts | 91° |
| 2026-04-27 22:01 | -12.21847 | -74.20987 | 37195 ft | 443 kts | 91° |
| 2026-04-27 22:01 | -12.22188 | -74.14738 | 37157 ft | 442 kts | 91° |
| 2026-04-27 22:02 | -12.22529 | -74.08446 | 37109 ft | 442 kts | 91° |
| 2026-04-27 22:02 | -12.22871 | -74.02152 | 37042 ft | 442 kts | 91° |
| 2026-04-27 22:03 | -12.23210 | -73.95879 | 37037 ft | 442 kts | 91° |
| 2026-04-27 22:03 | -12.23565 | -73.89616 | 37101 ft | 443 kts | 92° |
| 2026-04-27 22:04 | -12.24106 | -73.83330 | 37166 ft | 443 kts | 93° |
| 2026-04-27 22:04 | -12.24662 | -73.77074 | 37230 ft | 443 kts | 93° |
| 2026-04-27 22:05 | -12.25215 | -73.70808 | 37295 ft | 443 kts | 93° |
| 2026-04-27 22:05 | -12.25764 | -73.64552 | 37314 ft | 442 kts | 93° |
| 2026-04-27 22:06 | -12.26309 | -73.58310 | 37352 ft | 441 kts | 93° |
| 2026-04-27 22:06 | -12.26852 | -73.52101 | 37390 ft | 442 kts | 93° |
| 2026-04-27 22:07 | -12.27396 | -73.45836 | 37429 ft | 442 kts | 93° |
| 2026-04-27 22:07 | -12.27938 | -73.39590 | 37403 ft | 442 kts | 93° |
| 2026-04-27 22:08 | -12.28477 | -73.33353 | 37364 ft | 441 kts | 93° |
| 2026-04-27 22:08 | -12.29013 | -73.27139 | 37322 ft | 441 kts | 93° |
| 2026-04-27 22:09 | -12.29550 | -73.20905 | 37278 ft | 441 kts | 93° |
| 2026-04-27 22:09 | -12.30086 | -73.14664 | 37217 ft | 440 kts | 93° |
| 2026-04-27 22:10 | -12.30619 | -73.08435 | 37209 ft | 441 kts | 93° |
| 2026-04-27 22:10 | -12.31151 | -73.02204 | 37174 ft | 441 kts | 93° |
| 2026-04-27 22:11 | -12.31681 | -72.95966 | 37112 ft | 441 kts | 93° |
| 2026-04-27 22:11 | -12.32211 | -72.89724 | 37122 ft | 442 kts | 93° |
| 2026-04-27 22:12 | -12.32742 | -72.83465 | 37109 ft | 441 kts | 93° |
| 2026-04-27 22:12 | -12.33269 | -72.77228 | 37139 ft | 441 kts | 93° |
| 2026-04-27 22:13 | -12.33793 | -72.71000 | 37148 ft | 441 kts | 93° |
| 2026-04-27 22:13 | -12.34318 | -72.64756 | 37176 ft | 441 kts | 93° |
| 2026-04-27 22:14 | -12.34842 | -72.58500 | 37207 ft | 442 kts | 93° |
| 2026-04-27 22:14 | -12.35366 | -72.52208 | 37238 ft | 442 kts | 93° |
| 2026-04-27 22:15 | -12.35886 | -72.45988 | 37255 ft | 442 kts | 93° |
| 2026-04-27 22:15 | -12.36410 | -72.39704 | 37289 ft | 441 kts | 93° |
| 2026-04-27 22:16 | -12.36923 | -72.33496 | 37363 ft | 441 kts | 93° |
| 2026-04-27 22:16 | -12.37441 | -72.27234 | 37374 ft | 440 kts | 93° |
| 2026-04-27 22:17 | -12.37956 | -72.21003 | 37419 ft | 441 kts | 93° |
| 2026-04-27 22:17 | -12.38469 | -72.14752 | 37466 ft | 442 kts | 93° |
| 2026-04-27 22:18 | -12.38979 | -72.08493 | 37516 ft | 442 kts | 93° |
| 2026-04-27 22:18 | -12.39488 | -72.02254 | 37564 ft | 442 kts | 93° |
| 2026-04-27 22:19 | -12.39999 | -71.95969 | 37573 ft | 442 kts | 93° |
| 2026-04-27 22:19 | -12.40506 | -71.89716 | 37546 ft | 442 kts | 93° |
| 2026-04-27 22:20 | -12.41014 | -71.83468 | 37539 ft | 442 kts | 93° |
| 2026-04-27 22:20 | -12.40908 | -71.77261 | 37490 ft | 439 kts | 80° |
| 2026-04-27 22:21 | -12.40293 | -71.71073 | 37390 ft | 442 kts | 93° |
| 2026-04-27 22:21 | -12.41270 | -71.64835 | 37355 ft | 444 kts | 99° |
| 2026-04-27 22:22 | -12.42366 | -71.58660 | 37299 ft | 443 kts | 99° |
| 2026-04-27 22:22 | -12.43443 | -71.52478 | 37223 ft | 442 kts | 97° |
| 2026-04-27 22:23 | -12.44047 | -71.46260 | 37156 ft | 441 kts | 93° |
| 2026-04-27 22:23 | -12.44515 | -71.39996 | 37128 ft | 441 kts | 93° |
| 2026-04-27 22:24 | -12.44992 | -71.33768 | 37123 ft | 441 kts | 93° |
| 2026-04-27 22:24 | -12.45238 | -71.30609 | 36980 ft | 443 kts | 93° |
| 2026-04-27 22:24 | -12.45482 | -71.27491 | 36298 ft | 445 kts | 93° |
| 2026-04-27 22:24 | -12.45729 | -71.24354 | 35647 ft | 444 kts | 93° |
| 2026-04-27 22:25 | -12.45975 | -71.21217 | 35027 ft | 442 kts | 93° |
| 2026-04-27 22:25 | -12.46220 | -71.18097 | 34402 ft | 441 kts | 93° |
| 2026-04-27 22:25 | -12.46464 | -71.14996 | 33744 ft | 440 kts | 93° |
| 2026-04-27 22:25 | -12.46708 | -71.11871 | 33132 ft | 437 kts | 93° |
| 2026-04-27 22:26 | -12.46947 | -71.08805 | 32564 ft | 436 kts | 93° |
| 2026-04-27 22:26 | -12.47187 | -71.05730 | 31966 ft | 437 kts | 93° |
| 2026-04-27 22:26 | -12.47427 | -71.02629 | 31337 ft | 438 kts | 94° |
| 2026-04-27 22:26 | -12.47668 | -70.99539 | 30776 ft | 436 kts | 94° |
| 2026-04-27 22:27 | -12.47908 | -70.96455 | 30346 ft | 432 kts | 94° |
| 2026-04-27 22:27 | -12.48144 | -70.93415 | 29924 ft | 427 kts | 94° |
| 2026-04-27 22:27 | -12.48375 | -70.90438 | 29488 ft | 424 kts | 94° |
| 2026-04-27 22:27 | -12.48607 | -70.87432 | 29015 ft | 421 kts | 94° |
| 2026-04-27 22:28 | -12.48837 | -70.84461 | 28549 ft | 418 kts | 94° |
| 2026-04-27 22:28 | -12.49065 | -70.81509 | 28080 ft | 415 kts | 94° |
| 2026-04-27 22:28 | -12.49290 | -70.78597 | 27636 ft | 412 kts | 94° |
| 2026-04-27 22:28 | -12.49514 | -70.75676 | 27204 ft | 409 kts | 94° |
| 2026-04-27 22:29 | -12.49733 | -70.72832 | 26793 ft | 405 kts | 94° |
| 2026-04-27 22:29 | -12.49954 | -70.69955 | 26364 ft | 402 kts | 94° |
| 2026-04-27 22:29 | -12.50171 | -70.67132 | 25935 ft | 399 kts | 94° |
| 2026-04-27 22:29 | -12.50389 | -70.64292 | 25500 ft | 397 kts | 94° |
| 2026-04-27 22:30 | -12.50601 | -70.61517 | 25083 ft | 394 kts | 94° |
| 2026-04-27 22:30 | -12.50814 | -70.58733 | 24680 ft | 390 kts | 94° |
| 2026-04-27 22:30 | -12.51023 | -70.55987 | 24285 ft | 387 kts | 94° |
| 2026-04-27 22:30 | -12.51231 | -70.53253 | 23878 ft | 384 kts | 95° |
| 2026-04-27 22:31 | -12.51437 | -70.50540 | 23465 ft | 382 kts | 95° |
| 2026-04-27 22:31 | -12.51641 | -70.47863 | 23061 ft | 380 kts | 95° |
| 2026-04-27 22:31 | -12.51844 | -70.45187 | 22650 ft | 377 kts | 95° |
| 2026-04-27 22:31 | -12.52045 | -70.42527 | 22253 ft | 375 kts | 95° |
| 2026-04-27 22:32 | -12.52247 | -70.39869 | 21884 ft | 372 kts | 95° |
| 2026-04-27 22:32 | -12.52448 | -70.37232 | 21529 ft | 369 kts | 94° |
| 2026-04-27 22:32 | -12.52645 | -70.34651 | 21146 ft | 368 kts | 94° |
| 2026-04-27 22:32 | -12.52842 | -70.32033 | 20723 ft | 367 kts | 94° |
| 2026-04-27 22:33 | -12.53037 | -70.29439 | 20307 ft | 367 kts | 94° |
| 2026-04-27 22:33 | -12.53232 | -70.26837 | 19884 ft | 366 kts | 94° |
| 2026-04-27 22:33 | -12.53423 | -70.24273 | 19457 ft | 366 kts | 94° |
| 2026-04-27 22:33 | -12.53620 | -70.21652 | 19022 ft | 366 kts | 94° |
| 2026-04-27 22:34 | -12.53795 | -70.19337 | 18651 ft | 365 kts | 94° |
| 2026-04-27 22:34 | -12.53815 | -70.19059 | 18606 ft | 365 kts | 94° |
| 2026-04-27 22:34 | -12.54006 | -70.16512 | 18193 ft | 364 kts | 93° |
| 2026-04-27 22:34 | -12.54199 | -70.13931 | 17767 ft | 364 kts | 93° |
| 2026-04-27 22:35 | -12.54391 | -70.11354 | 17343 ft | 363 kts | 93° |
| 2026-04-27 22:35 | -12.54635 | -70.08819 | 16925 ft | 362 kts | 97° |
| 2026-04-27 22:35 | -12.55110 | -70.06282 | 16499 ft | 362 kts | 103° |
| 2026-04-27 22:35 | -12.55782 | -70.03826 | 16075 ft | 361 kts | 105° |
| 2026-04-27 22:36 | -12.56509 | -70.01361 | 15640 ft | 361 kts | 105° |
| 2026-04-27 22:36 | -12.57234 | -69.98923 | 15208 ft | 360 kts | 106° |
| 2026-04-27 22:36 | -12.57958 | -69.96481 | 14775 ft | 359 kts | 105° |
| 2026-04-27 22:36 | -12.58680 | -69.94043 | 14358 ft | 357 kts | 105° |
| 2026-04-27 22:37 | -12.59404 | -69.91592 | 13930 ft | 356 kts | 105° |
| 2026-04-27 22:37 | -12.60112 | -69.89184 | 13505 ft | 354 kts | 105° |
| 2026-04-27 22:37 | -12.60815 | -69.86790 | 13087 ft | 353 kts | 105° |
| 2026-04-27 22:37 | -12.61518 | -69.84389 | 12649 ft | 352 kts | 105° |
| 2026-04-27 22:38 | -12.62217 | -69.82011 | 12215 ft | 351 kts | 105° |
| 2026-04-27 22:38 | -12.62918 | -69.79620 | 11781 ft | 350 kts | 105° |
| 2026-04-27 22:38 | -12.63610 | -69.77257 | 11347 ft | 348 kts | 105° |
| 2026-04-27 22:38 | -12.64303 | -69.74893 | 10919 ft | 347 kts | 105° |
| 2026-04-27 22:39 | -12.64999 | -69.72521 | 10524 ft | 344 kts | 105° |
| 2026-04-27 22:39 | -12.65681 | -69.70198 | 10218 ft | 338 kts | 105° |
| 2026-04-27 22:39 | -12.66337 | -69.67960 | 10023 ft | 323 kts | 105° |
| 2026-04-27 22:39 | -12.66965 | -69.65812 | 9849 ft | 308 kts | 105° |
| 2026-04-27 22:40 | -12.67576 | -69.63728 | 9538 ft | 304 kts | 105° |
| 2026-04-27 22:40 | -12.68179 | -69.61665 | 9274 ft | 300 kts | 105° |
| 2026-04-27 22:40 | -12.68770 | -69.59641 | 9021 ft | 296 kts | 106° |
| 2026-04-27 22:40 | -12.69355 | -69.57642 | 8776 ft | 291 kts | 105° |
| 2026-04-27 22:41 | -12.69931 | -69.55673 | 8505 ft | 288 kts | 105° |
| 2026-04-27 22:41 | -12.70505 | -69.53710 | 8195 ft | 287 kts | 105° |
| 2026-04-27 22:41 | -12.71076 | -69.51756 | 7883 ft | 286 kts | 105° |
| 2026-04-27 22:41 | -12.71646 | -69.49800 | 7574 ft | 284 kts | 105° |
| 2026-04-27 22:42 | -12.72206 | -69.47882 | 7267 ft | 283 kts | 105° |
| 2026-04-27 22:42 | -12.72770 | -69.45937 | 6867 ft | 285 kts | 105° |
| 2026-04-27 22:42 | -12.73332 | -69.43996 | 6536 ft | 285 kts | 105° |
| 2026-04-27 22:42 | -12.73893 | -69.42061 | 6240 ft | 283 kts | 105° |
| 2026-04-27 22:43 | -12.74448 | -69.40138 | 5939 ft | 280 kts | 106° |
| 2026-04-27 22:43 | -12.74995 | -69.38254 | 5564 ft | 275 kts | 105° |
| 2026-04-27 22:43 | -12.75536 | -69.36385 | 5152 ft | 272 kts | 105° |
| 2026-04-27 22:43 | -12.76078 | -69.34521 | 4699 ft | 270 kts | 105° |
| 2026-04-27 22:44 | -12.76606 | -69.32690 | 4266 ft | 268 kts | 105° |
| 2026-04-27 22:44 | -12.77130 | -69.30879 | 4104 ft | 257 kts | 105° |
| 2026-04-27 22:44 | -12.77620 | -69.29187 | 4034 ft | 241 kts | 105° |
| 2026-04-27 22:44 | -12.78083 | -69.27592 | 3974 ft | 226 kts | 105° |
| 2026-04-27 22:45 | -12.78516 | -69.26093 | 3914 ft | 212 kts | 105° |
| 2026-04-27 22:45 | -12.78841 | -69.24665 | 3750 ft | 203 kts | 88° |
| 2026-04-27 22:45 | -12.78354 | -69.23405 | 3613 ft | 185 kts | 42° |
| 2026-04-27 22:45 | -12.77201 | -69.22985 | 3455 ft | 175 kts | 1° |
| 2026-04-27 22:46 | -12.75998 | -69.23096 | 3195 ft | 173 kts | 355° |
| 2026-04-27 22:46 | -12.74806 | -69.23216 | 2963 ft | 169 kts | 357° |
| 2026-04-27 22:46 | -12.73651 | -69.23274 | 2741 ft | 161 kts | 0° |
| 2026-04-27 22:46 | -12.72560 | -69.23283 | 2549 ft | 153 kts | 2° |
| 2026-04-27 22:47 | -12.71533 | -69.23271 | 2350 ft | 141 kts | 3° |
| 2026-04-27 22:47 | -12.70585 | -69.23247 | 2173 ft | 135 kts | 4° |
| 2026-04-27 22:47 | -12.69647 | -69.23215 | 2012 ft | 134 kts | 5° |
| 2026-04-27 22:47 | -12.68714 | -69.23178 | 1851 ft | 133 kts | 5° |
| 2026-04-27 22:48 | -12.67784 | -69.23140 | 1684 ft | 132 kts | 5° |
| 2026-04-27 22:48 | -12.66855 | -69.23100 | 1499 ft | 131 kts | 4° |
| 2026-04-27 22:48 | -12.65940 | -69.23060 | 1288 ft | 131 kts | 2° |
| 2026-04-27 22:48 | -12.65035 | -69.23036 | 1112 ft | 131 kts | 4° |
| 2026-04-27 22:49 | -12.64121 | -69.22982 | 957 ft | 131 kts | 4° |
| 2026-04-27 22:49 | -12.63203 | -69.22942 | 787 ft | 131 kts | 2° |
| 2026-04-27 22:49 | -12.62309 | -69.22909 | 715 ft | 107 kts | 1° |
| 2026-04-27 22:49 | -12.61806 | -69.22890 | 714 ft | 53 kts | 5° |
| 2026-04-27 22:50 | -12.61485 | -69.22873 | 714 ft | 40 kts | 2° |
| 2026-04-27 22:50 | -12.61221 | -69.22861 | 716 ft | 34 kts | 2° |
| 2026-04-27 22:50 | -12.60923 | -69.22847 | 714 ft | 71 kts | 2° |
| 2026-04-27 22:50 | -12.60164 | -69.22816 | 722 ft | 139 kts | 355° |
| 2026-04-27 22:51 | -12.59108 | -69.22871 | 1111 ft | 159 kts | 346° |
| 2026-04-27 22:51 | -12.58086 | -69.23375 | 1687 ft | 175 kts | 316° |
| 2026-04-27 22:51 | -12.57268 | -69.24346 | 2216 ft | 190 kts | 306° |
| 2026-04-27 22:51 | -12.56918 | -69.25654 | 2402 ft | 188 kts | 261° |
| 2026-04-27 22:52 | -12.57644 | -69.26797 | 2658 ft | 209 kts | 212° |
| 2026-04-27 22:52 | -12.59092 | -69.27138 | 2931 ft | 228 kts | 173° |
| 2026-04-27 22:52 | -12.60714 | -69.26824 | 2988 ft | 241 kts | 166° |
| 2026-04-27 22:52 | -12.62434 | -69.26441 | 3022 ft | 263 kts | 167° |
| 2026-04-27 22:53 | -12.64184 | -69.26089 | 3014 ft | 248 kts | 168° |
| 2026-04-27 22:53 | -12.65892 | -69.25777 | 3021 ft | 250 kts | 169° |
| 2026-04-27 22:53 | -12.67633 | -69.25478 | 3024 ft | 250 kts | 169° |
| 2026-04-27 22:53 | -12.69351 | -69.25196 | 3026 ft | 250 kts | 169° |
| 2026-04-27 22:54 | -12.71085 | -69.24915 | 3026 ft | 249 kts | 169° |
| 2026-04-27 22:54 | -12.72800 | -69.24641 | 3025 ft | 249 kts | 169° |
| 2026-04-27 22:54 | -12.74514 | -69.24367 | 3028 ft | 249 kts | 169° |
| 2026-04-27 22:54 | -12.76247 | -69.24089 | 3032 ft | 250 kts | 169° |
| 2026-04-27 22:55 | -12.77966 | -69.23814 | 3032 ft | 250 kts | 169° |
| 2026-04-27 22:55 | -12.79701 | -69.23530 | 3032 ft | 250 kts | 166° |
| 2026-04-27 22:55 | -12.81293 | -69.22878 | 3030 ft | 242 kts | 146° |
| 2026-04-27 22:55 | -12.82646 | -69.21912 | 3036 ft | 235 kts | 141° |
| 2026-04-27 22:56 | -12.83968 | -69.20923 | 3039 ft | 234 kts | 142° |
| 2026-04-27 22:56 | -12.85301 | -69.19970 | 3046 ft | 237 kts | 144° |
| 2026-04-27 22:56 | -12.86689 | -69.19019 | 3047 ft | 239 kts | 144° |
| 2026-04-27 22:56 | -12.88092 | -69.18090 | 3046 ft | 239 kts | 148° |
| 2026-04-27 22:57 | -12.89678 | -69.17576 | 3036 ft | 241 kts | 178° |
| 2026-04-27 22:57 | -12.91281 | -69.17961 | 3037 ft | 235 kts | 210° |
| 2026-04-27 22:57 | -12.92428 | -69.19129 | 3043 ft | 234 kts | 243° |
| 2026-04-27 22:57 | -12.92812 | -69.20712 | 3049 ft | 232 kts | 274° |
| 2026-04-27 22:58 | -12.92337 | -69.22300 | 3058 ft | 243 kts | 306° |
| 2026-04-27 22:58 | -12.91072 | -69.23439 | 3056 ft | 244 kts | 338° |
| 2026-04-27 22:58 | -12.89416 | -69.23743 | 3061 ft | 242 kts | 2° |
| 2026-04-27 22:58 | -12.87713 | -69.23691 | 3056 ft | 242 kts | 2° |
| 2026-04-27 22:59 | -12.86027 | -69.23659 | 3052 ft | 242 kts | 1° |
| 2026-04-27 22:59 | -12.84329 | -69.23643 | 3048 ft | 241 kts | 1° |
| 2026-04-27 22:59 | -12.82660 | -69.23632 | 3041 ft | 235 kts | 1° |
| 2026-04-27 22:59 | -12.81071 | -69.23625 | 3029 ft | 220 kts | 1° |
| 2026-04-27 23:00 | -12.78212 | -69.23594 | 3010 ft | 190 kts | 3° |
| 2026-04-27 23:00 | -12.76909 | -69.23541 | 2824 ft | 185 kts | 4° |
| 2026-04-27 23:00 | -12.75662 | -69.23503 | 2672 ft | 168 kts | 3° |
| 2026-04-27 23:01 | -12.74513 | -69.23476 | 2414 ft | 161 kts | 4° |
| 2026-04-27 23:01 | -12.73445 | -69.23421 | 2210 ft | 147 kts | 6° |
| 2026-04-27 23:01 | -12.72441 | -69.23350 | 2129 ft | 142 kts | 1° |
| 2026-04-27 23:01 | -12.71454 | -69.23332 | 2029 ft | 141 kts | 6° |
| 2026-04-27 23:02 | -12.70476 | -69.23238 | 1950 ft | 141 kts | 4° |
| 2026-04-27 23:02 | -12.69488 | -69.23197 | 1849 ft | 141 kts | 2° |
| 2026-04-27 23:02 | -12.68501 | -69.23182 | 1736 ft | 140 kts | 2° |
| 2026-04-27 23:02 | -12.67520 | -69.23149 | 1602 ft | 140 kts | 4° |
| 2026-04-27 23:03 | -12.66546 | -69.23088 | 1442 ft | 140 kts | 4° |
| 2026-04-27 23:03 | -12.65575 | -69.23042 | 1279 ft | 140 kts | 2° |
| 2026-04-27 23:03 | -12.64596 | -69.23001 | 1067 ft | 139 kts | 2° |
| 2026-04-27 23:03 | -12.63639 | -69.22963 | 863 ft | 136 kts | 2° |
| 2026-04-27 23:04 | -12.62706 | -69.22923 | 720 ft | 132 kts | 2° |
| 2026-04-27 23:04 | -12.62012 | -69.22894 | 715 ft | 55 kts | 1° |
| 2026-04-27 23:04 | -12.61739 | -69.22883 | 714 ft | 32 kts | 2° |
| 2026-04-27 23:04 | -12.61540 | -69.22875 | 714 ft | 28 kts | 2° |
| 2026-04-27 23:05 | -12.61310 | -69.22865 | 715 ft | 34 kts | 2° |
| 2026-04-27 23:05 | -12.61090 | -69.22856 | 716 ft | 29 kts | 2° |
| 2026-04-27 23:05 | -12.60893 | -69.22848 | 714 ft | 26 kts | 1° |
| 2026-04-27 23:05 | -12.60713 | -69.22841 | 712 ft | 25 kts | 2° |
| 2026-04-27 23:06 | -12.60543 | -69.22833 | 711 ft | 23 kts | 2° |
| 2026-04-27 23:06 | -12.60389 | -69.22829 | 709 ft | 20 kts | 1° |
| 2026-04-27 23:06 | -12.60299 | -69.22813 | 707 ft | 9 kts | 54° |
| 2026-04-27 23:06 | -12.60291 | -69.22743 | 706 ft | 11 kts | 92° |
| 2026-04-27 23:07 | -12.60294 | -69.22658 | 705 ft | 12 kts | 92° |
| 2026-04-27 23:07 | -12.60298 | -69.22566 | 705 ft | 12 kts | 92° |
| 2026-04-27 23:07 | -12.60300 | -69.22462 | 703 ft | 16 kts | 91° |
| 2026-04-27 23:07 | -12.60303 | -69.22343 | 701 ft | 16 kts | 92° |
| 2026-04-27 23:08 | -12.60318 | -69.22251 | 701 ft | 9 kts | 143° |
| 2026-04-27 23:08 | -12.60379 | -69.22247 | 702 ft | 8 kts | 187° |
| 2026-04-27 23:08 | -12.60436 | -69.22252 | 702 ft | 7 kts | 171° |
| 2026-04-27 23:08 | -12.60445 | -69.22217 | 702 ft | 6 kts | 50° |
| 2026-04-27 23:09 | -12.60438 | -69.22208 | 702 ft | 0 kts | 51° |
| 2026-04-27 23:47 | -12.60434 | -69.22205 | 702 ft | 0 kts | 32° |
| 2026-04-27 23:47 | -12.60431 | -69.22205 | 702 ft | 1 kts | 2° |
| 2026-04-27 23:48 | -12.60416 | -69.22211 | 702 ft | 3 kts | 329° |
| 2026-04-27 23:48 | -12.60385 | -69.22231 | 702 ft | 5 kts | 328° |
| 2026-04-27 23:48 | -12.60353 | -69.22244 | 702 ft | 4 kts | 358° |
| 2026-04-27 23:48 | -12.60324 | -69.22243 | 702 ft | 4 kts | 2° |
| 2026-04-27 23:49 | -12.60308 | -69.22266 | 701 ft | 6 kts | 282° |
| 2026-04-27 23:49 | -12.60304 | -69.22323 | 701 ft | 10 kts | 272° |
| 2026-04-27 23:49 | -12.60302 | -69.22374 | 702 ft | 5 kts | 272° |
| 2026-04-27 23:49 | -12.60301 | -69.22422 | 703 ft | 8 kts | 271° |
| 2026-04-27 23:50 | -12.60297 | -69.22490 | 704 ft | 10 kts | 272° |
| 2026-04-27 23:50 | -12.60294 | -69.22562 | 705 ft | 10 kts | 271° |
| 2026-04-27 23:50 | -12.60294 | -69.22637 | 705 ft | 10 kts | 271° |
| 2026-04-27 23:50 | -12.60292 | -69.22710 | 706 ft | 10 kts | 272° |
| 2026-04-27 23:51 | -12.60288 | -69.22778 | 707 ft | 9 kts | 272° |
| 2026-04-27 23:51 | -12.60268 | -69.22832 | 708 ft | 8 kts | 338° |
| 2026-04-27 23:51 | -12.60208 | -69.22826 | 708 ft | 9 kts | 7° |
| 2026-04-27 23:51 | -12.60143 | -69.22817 | 708 ft | 9 kts | 6° |
| 2026-04-27 23:52 | -12.60071 | -69.22814 | 708 ft | 10 kts | 2° |
| 2026-04-27 23:52 | -12.59995 | -69.22809 | 708 ft | 11 kts | 1° |
| 2026-04-27 23:52 | -12.59916 | -69.22807 | 708 ft | 11 kts | 1° |
| 2026-04-27 23:52 | -12.59854 | -69.22829 | 708 ft | 8 kts | 320° |
| 2026-04-27 23:53 | -12.59798 | -69.22835 | 708 ft | 7 kts | 40° |
| 2026-04-27 23:53 | -12.59798 | -69.22807 | 707 ft | 4 kts | 132° |
| 2026-04-27 23:53 | -12.59826 | -69.22804 | 707 ft | 2 kts | 186° |
| 2026-04-27 23:53 | -12.59827 | -69.22804 | 707 ft | 0 kts | 186° |
| 2026-04-27 23:54 | -12.59828 | -69.22804 | 707 ft | 0 kts | 186° |
| 2026-04-27 23:54 | -12.59855 | -69.22806 | 708 ft | 23 kts | 183° |
| 2026-04-27 23:54 | -12.60301 | -69.22827 | 708 ft | 99 kts | 181° |
| 2026-04-27 23:54 | -12.61209 | -69.22863 | 718 ft | 159 kts | 182° |
| 2026-04-27 23:55 | -12.62368 | -69.22918 | 1199 ft | 169 kts | 181° |
| 2026-04-27 23:55 | -12.63561 | -69.22972 | 1680 ft | 179 kts | 181° |
| 2026-04-27 23:55 | -12.64878 | -69.23038 | 2060 ft | 196 kts | 182° |
| 2026-04-27 23:55 | -12.66311 | -69.23119 | 2405 ft | 217 kts | 184° |
| 2026-04-27 23:56 | -12.67802 | -69.23574 | 2820 ft | 239 kts | 216° |
| 2026-04-27 23:56 | -12.68808 | -69.24969 | 3360 ft | 253 kts | 253° |
| 2026-04-27 23:56 | -12.69197 | -69.26722 | 4081 ft | 261 kts | 260° |
| 2026-04-27 23:56 | -12.69569 | -69.28612 | 4658 ft | 278 kts | 258° |
| 2026-04-27 23:57 | -12.70025 | -69.30534 | 5463 ft | 284 kts | 256° |
| 2026-04-27 23:57 | -12.70554 | -69.32476 | 6390 ft | 286 kts | 254° |
| 2026-04-27 23:57 | -12.71129 | -69.34420 | 7271 ft | 290 kts | 253° |
| 2026-04-27 23:57 | -12.71738 | -69.36395 | 8146 ft | 293 kts | 253° |
| 2026-04-27 23:58 | -12.72367 | -69.38384 | 8981 ft | 297 kts | 253° |
| 2026-04-27 23:58 | -12.72999 | -69.40367 | 9784 ft | 300 kts | 252° |
| 2026-04-27 23:58 | -12.73659 | -69.42424 | 10505 ft | 306 kts | 252° |
| 2026-04-27 23:58 | -12.74343 | -69.44549 | 10954 ft | 322 kts | 252° |
| 2026-04-27 23:59 | -12.75053 | -69.46747 | 11592 ft | 328 kts | 252° |
| 2026-04-27 23:59 | -12.75769 | -69.48959 | 12289 ft | 332 kts | 252° |
| 2026-04-27 23:59 | -12.76492 | -69.51196 | 12969 ft | 335 kts | 252° |
| 2026-04-27 23:59 | -12.77227 | -69.53475 | 13632 ft | 339 kts | 253° |
| 2026-04-28 00:00 | -12.77960 | -69.55751 | 14265 ft | 343 kts | 253° |
| 2026-04-28 00:00 | -12.78711 | -69.58080 | 14893 ft | 346 kts | 253° |
| 2026-04-28 00:00 | -12.79472 | -69.60448 | 15514 ft | 350 kts | 252° |
| 2026-04-28 00:00 | -12.80226 | -69.62793 | 16151 ft | 351 kts | 252° |
| 2026-04-28 00:01 | -12.80989 | -69.65164 | 16761 ft | 354 kts | 252° |
| 2026-04-28 00:01 | -12.81765 | -69.67575 | 17359 ft | 356 kts | 252° |
| 2026-04-28 00:01 | -12.82548 | -69.70003 | 17944 ft | 359 kts | 252° |
| 2026-04-28 00:01 | -12.83321 | -69.72433 | 18491 ft | 362 kts | 254° |
| 2026-04-28 00:02 | -12.83854 | -69.74942 | 19029 ft | 364 kts | 263° |
| 2026-04-28 00:02 | -12.84020 | -69.77537 | 19570 ft | 366 kts | 271° |
| 2026-04-28 00:02 | -12.83928 | -69.80165 | 20115 ft | 368 kts | 273° |
| 2026-04-28 00:02 | -12.83793 | -69.82755 | 20629 ft | 371 kts | 273° |
| 2026-04-28 00:03 | -12.83650 | -69.85394 | 21145 ft | 373 kts | 273° |
| 2026-04-28 00:03 | -12.83509 | -69.88056 | 21645 ft | 375 kts | 273° |
| 2026-04-28 00:03 | -12.83372 | -69.90729 | 22141 ft | 376 kts | 272° |
| 2026-04-28 00:03 | -12.83241 | -69.93369 | 22921 ft | 369 kts | 272° |
| 2026-04-28 00:04 | -12.83116 | -69.95946 | 23636 ft | 364 kts | 272° |
| 2026-04-28 00:04 | -12.82863 | -70.01158 | 24414 ft | 374 kts | 273° |
| 2026-04-28 00:04 | -12.82731 | -70.03866 | 24607 ft | 384 kts | 273° |
| 2026-04-28 00:05 | -12.82596 | -70.06627 | 24871 ft | 392 kts | 273° |
| 2026-04-28 00:05 | -12.82461 | -70.09397 | 25269 ft | 395 kts | 273° |
| 2026-04-28 00:05 | -12.82323 | -70.12225 | 25694 ft | 398 kts | 273° |
| 2026-04-28 00:05 | -12.82185 | -70.15063 | 26126 ft | 400 kts | 273° |
| 2026-04-28 00:06 | -12.82045 | -70.17909 | 26548 ft | 402 kts | 273° |
| 2026-04-28 00:06 | -12.81904 | -70.20776 | 26974 ft | 404 kts | 273° |
| 2026-04-28 00:06 | -12.81764 | -70.23635 | 27386 ft | 407 kts | 273° |
| 2026-04-28 00:06 | -12.81621 | -70.26542 | 27809 ft | 409 kts | 273° |
| 2026-04-28 00:07 | -12.81478 | -70.29444 | 28220 ft | 411 kts | 273° |
| 2026-04-28 00:07 | -12.81333 | -70.32368 | 28623 ft | 413 kts | 273° |
| 2026-04-28 00:07 | -12.81189 | -70.35274 | 29001 ft | 415 kts | 273° |
| 2026-04-28 00:07 | -12.81042 | -70.38232 | 29385 ft | 418 kts | 273° |
| 2026-04-28 00:08 | -12.80893 | -70.41214 | 29752 ft | 421 kts | 273° |
| 2026-04-28 00:08 | -12.80742 | -70.44238 | 30112 ft | 423 kts | 274° |
| 2026-04-28 00:08 | -12.80594 | -70.47227 | 30481 ft | 426 kts | 274° |
| 2026-04-28 00:08 | -12.80441 | -70.50268 | 30870 ft | 428 kts | 274° |
| 2026-04-28 00:09 | -12.80288 | -70.53288 | 31237 ft | 430 kts | 274° |
| 2026-04-28 00:09 | -12.80133 | -70.56332 | 31646 ft | 431 kts | 274° |
| 2026-04-28 00:09 | -12.79979 | -70.59381 | 32151 ft | 429 kts | 274° |
| 2026-04-28 00:09 | -12.79829 | -70.62357 | 32668 ft | 427 kts | 274° |
| 2026-04-28 00:10 | -12.79676 | -70.65371 | 33235 ft | 425 kts | 274° |
| 2026-04-28 00:10 | -12.79690 | -70.68398 | 33788 ft | 424 kts | 267° |
| 2026-04-28 00:10 | -12.80000 | -70.71345 | 34487 ft | 419 kts | 262° |
| 2026-04-28 00:10 | -12.80491 | -70.74265 | 35103 ft | 416 kts | 261° |
| 2026-04-28 00:11 | -12.81005 | -70.77167 | 35515 ft | 416 kts | 261° |
| 2026-04-28 00:11 | -12.81519 | -70.80106 | 35898 ft | 416 kts | 261° |
| 2026-04-28 00:11 | -12.82029 | -70.83012 | 36289 ft | 416 kts | 261° |
| 2026-04-28 00:11 | -12.82537 | -70.85922 | 36639 ft | 417 kts | 261° |
| 2026-04-28 00:12 | -12.83046 | -70.88832 | 36934 ft | 418 kts | 261° |
| 2026-04-28 00:12 | -12.83563 | -70.91782 | 37214 ft | 419 kts | 261° |
| 2026-04-28 00:12 | -12.84072 | -70.94686 | 37484 ft | 421 kts | 261° |
| 2026-04-28 00:12 | -12.84594 | -70.97665 | 37758 ft | 422 kts | 261° |
| 2026-04-28 00:13 | -12.85106 | -71.00607 | 38013 ft | 423 kts | 262° |
| 2026-04-28 00:13 | -12.86133 | -71.06550 | 38126 ft | 425 kts | 262° |
| 2026-04-28 00:14 | -12.86894 | -71.12589 | 38142 ft | 430 kts | 272° |
| 2026-04-28 00:14 | -12.86183 | -71.18627 | 38161 ft | 431 kts | 281° |
| 2026-04-28 00:15 | -12.85154 | -71.24660 | 38134 ft | 432 kts | 281° |
| 2026-04-28 00:15 | -12.84136 | -71.30720 | 38173 ft | 432 kts | 281° |
| 2026-04-28 00:16 | -12.83133 | -71.36775 | 38210 ft | 432 kts | 281° |
| 2026-04-28 00:16 | -12.82134 | -71.42838 | 38247 ft | 431 kts | 281° |
| 2026-04-28 00:17 | -12.81136 | -71.48878 | 38306 ft | 431 kts | 281° |
| 2026-04-28 00:17 | -12.80138 | -71.54916 | 38354 ft | 431 kts | 281° |
| 2026-04-28 00:18 | -12.79138 | -71.60965 | 38429 ft | 431 kts | 281° |
| 2026-04-28 00:18 | -12.78135 | -71.67020 | 38473 ft | 431 kts | 281° |
| 2026-04-28 00:19 | -12.77131 | -71.73079 | 38556 ft | 432 kts | 281° |
| 2026-04-28 00:19 | -12.76126 | -71.79129 | 38614 ft | 431 kts | 281° |
| 2026-04-28 00:20 | -12.75122 | -71.85156 | 38603 ft | 431 kts | 281° |
| 2026-04-28 00:20 | -12.74111 | -71.91225 | 38619 ft | 431 kts | 281° |
| 2026-04-28 00:21 | -12.73106 | -71.97253 | 38582 ft | 432 kts | 281° |
| 2026-04-28 00:21 | -12.72330 | -72.03357 | 38583 ft | 433 kts | 276° |
| 2026-04-28 00:22 | -12.71951 | -72.09508 | 38549 ft | 433 kts | 275° |
| 2026-04-28 00:22 | -12.71605 | -72.15643 | 38524 ft | 432 kts | 275° |
| 2026-04-28 00:23 | -12.71256 | -72.21771 | 38525 ft | 432 kts | 275° |
| 2026-04-28 00:23 | -12.70906 | -72.27910 | 38534 ft | 433 kts | 275° |
| 2026-04-28 00:24 | -12.70556 | -72.34040 | 38525 ft | 432 kts | 275° |
| 2026-04-28 00:24 | -12.70204 | -72.40183 | 38486 ft | 432 kts | 275° |
| 2026-04-28 00:25 | -12.69852 | -72.46313 | 38441 ft | 432 kts | 275° |
| 2026-04-28 00:25 | -12.69496 | -72.52449 | 38402 ft | 433 kts | 275° |
| 2026-04-28 00:26 | -12.69142 | -72.58559 | 38435 ft | 432 kts | 275° |
| 2026-04-28 00:26 | -12.68784 | -72.64683 | 38445 ft | 432 kts | 275° |
| 2026-04-28 00:27 | -12.68423 | -72.70839 | 38442 ft | 432 kts | 275° |
| 2026-04-28 00:27 | -12.68064 | -72.76936 | 38410 ft | 432 kts | 275° |
| 2026-04-28 00:28 | -12.67702 | -72.83089 | 38441 ft | 432 kts | 275° |
| 2026-04-28 00:28 | -12.67340 | -72.89215 | 38427 ft | 432 kts | 275° |
| 2026-04-28 00:29 | -12.66975 | -72.95342 | 38395 ft | 432 kts | 275° |